createdAt,value
2023-03-03T00:01:38.048Z,94927.53
2023-03-03T00:04:07.079Z,94929.97
2023-03-03T00:06:36.253Z,94929.56
2023-03-03T00:09:05.353Z,94934.78
2023-03-03T00:11:34.410Z,94910.78
2023-03-03T00:14:03.496Z,94918.66
2023-03-03T00:16:38.967Z,94919.06
2023-03-03T00:19:16.095Z,94926.06
2023-03-03T00:21:47.993Z,94933.56
2023-03-03T00:24:21.033Z,94922.47
2023-03-03T00:26:51.670Z,94924.28
2023-03-03T00:29:37.724Z,94920.25
2023-03-03T00:32:29.471Z,94917.66
2023-03-03T00:35:18.674Z,94914.22
2023-03-03T00:37:49.290Z,94909.38
2023-03-03T00:40:24.332Z,94905.34
2023-03-03T00:42:55.981Z,94908.56
2023-03-03T00:45:30.357Z,94906.34
2023-03-03T00:48:03.590Z,94903.13
2023-03-03T00:50:33.887Z,94896.88
2023-03-03T00:53:08.411Z,94901.72
2023-03-03T00:55:37.542Z,94892.44
2023-03-03T00:58:06.649Z,94889.19
2023-03-03T01:00:42.709Z,94892.84
2023-03-03T01:03:17.653Z,94889.78
2023-03-03T01:05:46.813Z,94881.53
2023-03-03T01:08:15.908Z,94883.13
2023-03-03T01:10:47.879Z,94878.09
2023-03-03T01:13:17.404Z,94871.03
2023-03-03T01:15:58.666Z,94877.06
2023-03-03T01:18:29.921Z,94877.66
2023-03-03T01:20:59.149Z,94876.66
2023-03-03T01:23:28.306Z,94868.16
2023-03-03T01:25:58.301Z,94871.00
2023-03-03T01:28:27.695Z,94866.31
2023-03-03T01:30:56.696Z,94865.28
2023-03-03T01:33:26.691Z,94868.13
2023-03-03T01:35:58.031Z,94870.75
2023-03-03T01:38:27.268Z,94869.72
2023-03-03T01:40:57.366Z,94867.91
2023-03-03T01:43:29.027Z,94860.25
2023-03-03T01:46:40.485Z,94857.41
2023-03-03T01:49:15.753Z,94858.41
2023-03-03T01:51:50.548Z,94860.66
2023-03-03T01:54:26.132Z,94864.47
2023-03-03T01:56:59.319Z,94860.88
2023-03-03T01:59:33.156Z,94855.22
2023-03-03T02:02:02.747Z,94863.50
2023-03-03T02:04:32.944Z,94858.50
2023-03-03T02:07:10.213Z,94856.25
2023-03-03T02:09:51.029Z,94858.88
2023-03-03T02:12:22.117Z,94850.25
2023-03-03T02:15:19.330Z,94850.81
2023-03-03T02:17:49.814Z,94852.63
2023-03-03T02:20:32.310Z,94853.44
2023-03-03T02:23:09.738Z,94850.00
2023-03-03T02:25:46.761Z,94849.59
2023-03-03T02:28:17.272Z,94848.41
2023-03-03T02:30:46.470Z,94841.75
2023-03-03T02:33:16.001Z,94847.56
2023-03-03T02:35:45.033Z,94841.50
2023-03-03T02:38:23.355Z,94844.19
2023-03-03T02:41:03.448Z,94846.38
2023-03-03T02:43:41.174Z,94830.41
2023-03-03T02:46:10.410Z,94835.06
2023-03-03T02:48:39.411Z,94836.69
2023-03-03T02:51:08.838Z,94842.34
2023-03-03T02:53:37.712Z,94832.84
2023-03-03T02:56:09.680Z,94838.69
2023-03-03T02:58:40.212Z,94835.03
2023-03-03T03:01:10.158Z,94835.63
2023-03-03T03:03:39.766Z,94833.88
2023-03-03T03:06:09.879Z,94830.22
2023-03-03T03:08:39.708Z,94831.63
2023-03-03T03:11:09.072Z,94830.22
2023-03-03T03:13:39.711Z,94827.56
2023-03-03T03:16:09.693Z,94829.38
2023-03-03T03:18:38.822Z,94830.41
2023-03-03T03:21:10.302Z,94827.13
2023-03-03T03:23:41.379Z,94824.09
2023-03-03T03:26:10.928Z,94822.78
2023-03-03T03:28:41.914Z,94817.69
2023-03-03T03:31:11.619Z,94818.28
2023-03-03T03:33:40.938Z,94819.13
2023-03-03T03:36:10.617Z,94806.00
2023-03-03T03:38:40.162Z,94813.88
2023-03-03T03:41:10.858Z,94810.72
2023-03-03T03:43:41.975Z,94803.25
2023-03-03T03:46:11.361Z,94805.47
2023-03-03T03:48:40.717Z,94806.25
2023-03-03T03:51:13.500Z,94795.78
2023-03-03T03:53:43.624Z,94806.88
2023-03-03T03:56:12.667Z,94802.03
2023-03-03T03:58:44.291Z,94799.00
2023-03-03T04:01:16.405Z,94796.16
2023-03-03T04:03:50.499Z,94798.22
2023-03-03T04:06:22.870Z,94799.81
2023-03-03T04:08:53.091Z,94800.00
2023-03-03T04:11:24.644Z,94795.56
2023-03-03T04:13:55.898Z,94795.38
2023-03-03T04:16:25.215Z,94804.44
2023-03-03T04:18:54.364Z,94803.06
2023-03-03T04:21:24.526Z,94801.44
2023-03-03T04:23:56.020Z,94802.44
2023-03-03T04:26:25.265Z,94797.59
2023-03-03T04:28:56.348Z,94798.81
2023-03-03T04:31:26.217Z,94799.63
2023-03-03T04:33:56.158Z,94801.44
2023-03-03T04:36:26.151Z,94795.78
2023-03-03T04:38:55.212Z,94794.38
2023-03-03T04:41:25.491Z,94797.59
2023-03-03T04:43:56.366Z,94797.97
2023-03-03T04:46:25.621Z,94797.38
2023-03-03T04:48:55.712Z,94798.22
2023-03-03T04:51:25.999Z,94794.75
2023-03-03T04:53:55.215Z,94804.84
2023-03-03T04:56:24.534Z,94798.81
2023-03-03T04:58:53.736Z,94800.59
2023-03-03T05:01:24.275Z,94798.81
2023-03-03T05:03:53.357Z,94801.81
2023-03-03T05:06:22.496Z,94802.84
2023-03-03T05:08:51.558Z,94810.69
2023-03-03T05:11:20.695Z,94801.63
2023-03-03T05:13:50.366Z,94807.06
2023-03-03T05:16:19.450Z,94804.44
2023-03-03T05:18:52.983Z,94808.28
2023-03-03T05:21:22.258Z,94808.69
2023-03-03T05:23:51.377Z,94814.56
2023-03-03T05:26:20.338Z,94810.88
2023-03-03T05:28:49.399Z,94812.31
2023-03-03T05:31:18.433Z,94812.53
2023-03-03T05:33:47.538Z,94817.13
2023-03-03T05:36:17.924Z,94806.88
2023-03-03T05:38:48.013Z,94810.06
2023-03-03T05:41:17.087Z,94815.75
2023-03-03T05:43:46.174Z,94818.97
2023-03-03T05:46:18.227Z,94815.72
2023-03-03T05:48:48.072Z,94814.72
2023-03-03T05:51:18.572Z,94812.09
2023-03-03T05:53:47.780Z,94814.13
2023-03-03T05:56:16.865Z,94818.56
2023-03-03T05:58:46.002Z,94826.44
2023-03-03T06:01:14.981Z,94822.19
2023-03-03T06:03:44.103Z,94829.66
2023-03-03T06:06:14.368Z,94824.44
2023-03-03T06:08:44.990Z,94830.28
2023-03-03T06:11:16.889Z,94824.84
2023-03-03T06:13:46.103Z,94834.50
2023-03-03T06:16:15.257Z,94834.50
2023-03-03T06:18:44.419Z,94838.34
2023-03-03T06:21:14.421Z,94835.72
2023-03-03T06:23:44.970Z,94828.84
2023-03-03T06:26:14.024Z,94838.31
2023-03-03T06:28:43.172Z,94834.13
2023-03-03T06:31:12.967Z,94833.88
2023-03-03T06:33:42.916Z,94830.47
2023-03-03T06:36:12.587Z,94841.75
2023-03-03T06:38:41.631Z,94838.56
2023-03-03T06:41:13.049Z,94840.56
2023-03-03T06:43:42.277Z,94837.75
2023-03-03T06:46:12.106Z,94842.97
2023-03-03T06:48:42.170Z,94844.00
2023-03-03T06:51:27.013Z,94841.78
2023-03-03T06:54:03.109Z,94836.34
2023-03-03T06:56:37.551Z,94850.25
2023-03-03T06:59:14.020Z,94850.84
2023-03-03T07:01:44.380Z,94855.28
2023-03-03T07:04:25.863Z,94850.44
2023-03-03T07:06:55.080Z,94844.00
2023-03-03T07:09:26.014Z,94846.19
2023-03-03T07:12:03.947Z,94849.03
2023-03-03T07:14:33.109Z,94846.22
2023-03-03T07:17:06.479Z,94851.47
2023-03-03T07:19:37.171Z,94857.53
2023-03-03T07:22:18.501Z,94855.31
2023-03-03T07:24:50.774Z,94851.06
2023-03-03T07:27:25.942Z,94841.16
2023-03-03T07:29:57.337Z,94847.63
2023-03-03T07:32:29.992Z,94836.31
2023-03-03T07:34:59.139Z,94845.59
2023-03-03T07:37:36.465Z,94850.63
2023-03-03T07:40:27.196Z,94842.19
2023-03-03T07:42:57.755Z,94846.41
2023-03-03T07:45:38.218Z,94839.94
2023-03-03T07:48:17.427Z,94844.16
2023-03-03T07:50:47.853Z,94839.50
2023-03-03T07:53:27.091Z,94840.66
2023-03-03T07:55:59.000Z,94845.94
2023-03-03T07:58:39.331Z,94843.06
2023-03-03T08:01:40.733Z,94846.31
2023-03-03T08:04:23.507Z,94835.38
2023-03-03T08:06:57.768Z,94834.13
2023-03-03T08:09:40.759Z,94840.66
2023-03-03T08:12:42.155Z,94843.91
2023-03-03T08:15:21.529Z,94836.41
2023-03-03T08:17:52.334Z,94818.81
2023-03-03T08:20:44.856Z,94828.97
2023-03-03T08:23:14.670Z,94829.53
2023-03-03T08:25:45.711Z,94829.72
2023-03-03T08:28:15.726Z,94833.56
2023-03-03T08:30:48.428Z,94836.41
2023-03-03T08:33:17.802Z,94824.91
2023-03-03T08:35:47.430Z,94817.31
2023-03-03T08:38:19.184Z,94827.94
2023-03-03T08:40:49.787Z,94821.00
2023-03-03T08:43:23.023Z,94823.38
2023-03-03T08:45:54.610Z,94826.19
2023-03-03T08:48:23.690Z,94821.13
2023-03-03T08:50:53.414Z,94819.94
2023-03-03T08:53:24.368Z,94821.88
2023-03-03T08:55:55.378Z,94827.00
2023-03-03T08:58:34.666Z,94824.13
2023-03-03T09:01:06.924Z,94830.59
2023-03-03T09:03:36.750Z,94831.38
2023-03-03T09:06:06.163Z,94823.31
2023-03-03T09:08:35.338Z,94825.13
2023-03-03T09:11:04.519Z,94828.25
2023-03-03T09:13:33.508Z,94829.56
2023-03-03T09:16:02.638Z,94825.47
2023-03-03T09:18:38.342Z,94828.38
2023-03-03T09:21:24.094Z,94833.91
2023-03-03T09:23:57.575Z,94827.94
2023-03-03T09:26:31.360Z,94829.31
2023-03-03T09:29:19.616Z,94836.06
2023-03-03T09:31:52.551Z,94824.81
2023-03-03T09:34:26.369Z,94828.28
2023-03-03T09:36:57.187Z,94831.53
2023-03-03T09:39:27.642Z,94827.34
2023-03-03T09:42:27.950Z,94836.72
2023-03-03T09:45:21.029Z,94831.47
2023-03-03T09:48:17.322Z,94827.97
2023-03-03T09:50:57.037Z,94831.44
2023-03-03T09:53:39.121Z,94838.75
2023-03-03T09:56:18.313Z,94835.31
2023-03-03T09:59:03.404Z,94831.78
2023-03-03T10:01:50.430Z,94831.97
2023-03-03T10:04:39.852Z,94827.59
2023-03-03T10:07:25.758Z,94834.19
2023-03-03T10:10:09.581Z,94820.13
2023-03-03T10:12:49.369Z,94825.00
2023-03-03T10:15:32.395Z,94823.38
2023-03-03T10:18:10.307Z,94830.88
2023-03-03T10:20:52.288Z,94821.25
2023-03-03T10:23:34.333Z,94819.06
2023-03-03T10:26:11.726Z,94819.31
2023-03-03T10:29:22.171Z,94819.19
2023-03-03T10:32:02.599Z,94811.69
2023-03-03T10:34:54.245Z,94818.84
2023-03-03T10:37:30.678Z,94806.09
2023-03-03T10:40:15.267Z,94811.09
2023-03-03T10:43:04.463Z,94804.41
2023-03-03T10:46:04.929Z,94811.53
2023-03-03T10:48:58.026Z,94801.00
2023-03-03T10:51:34.516Z,94808.34
2023-03-03T10:54:19.560Z,94798.75
2023-03-03T10:57:03.554Z,94797.56
2023-03-03T10:59:49.518Z,94798.88
2023-03-03T11:02:24.166Z,94788.66
2023-03-03T11:05:08.607Z,94785.72
2023-03-03T11:07:42.352Z,94785.81
2023-03-03T11:10:34.414Z,94780.47
2023-03-03T11:13:18.121Z,94784.25
2023-03-03T11:15:57.352Z,94787.81
2023-03-03T11:18:36.661Z,94783.50
2023-03-03T11:21:15.979Z,94775.69
2023-03-03T11:24:10.816Z,94773.28
2023-03-03T11:26:57.117Z,94779.13
2023-03-03T11:29:49.127Z,94778.84
2023-03-03T11:32:29.008Z,94771.59
2023-03-03T11:35:10.803Z,94781.28
2023-03-03T11:37:47.201Z,94775.28
2023-03-03T11:40:23.018Z,94772.78
2023-03-03T11:43:03.330Z,94777.41
2023-03-03T11:45:42.149Z,94769.72
2023-03-03T11:48:19.696Z,94773.16
2023-03-03T11:50:57.075Z,94772.06
2023-03-03T11:53:56.237Z,94773.75
2023-03-03T11:56:28.828Z,94764.44
2023-03-03T11:59:17.052Z,94767.38
2023-03-03T12:01:54.033Z,94767.81
2023-03-03T12:04:31.097Z,94758.91
2023-03-03T12:07:19.452Z,94774.19
2023-03-03T12:10:04.668Z,94768.50
2023-03-03T12:12:40.054Z,94767.94
2023-03-03T12:15:21.637Z,94767.94
2023-03-03T12:18:21.587Z,94769.47
2023-03-03T12:21:07.560Z,94771.06
2023-03-03T12:23:52.564Z,94768.88
2023-03-03T12:26:31.117Z,94768.50
2023-03-03T12:29:04.793Z,94762.94
2023-03-03T12:31:47.210Z,94767.81
2023-03-03T12:34:26.264Z,94769.72
2023-03-03T12:37:19.598Z,94777.81
2023-03-03T12:39:57.794Z,94774.75
2023-03-03T12:42:39.854Z,94787.22
2023-03-03T12:45:25.658Z,94783.78
2023-03-03T12:48:01.888Z,94783.19
2023-03-03T12:50:45.844Z,94779.91
2023-03-03T12:53:32.186Z,94763.47
2023-03-03T12:56:06.178Z,94760.34
2023-03-03T12:58:49.785Z,94758.91
2023-03-03T13:01:30.622Z,94759.44
2023-03-03T13:04:07.163Z,94759.75
2023-03-03T13:06:42.686Z,94757.69
2023-03-03T13:09:30.171Z,94754.56
2023-03-03T13:12:16.930Z,94754.94
2023-03-03T13:14:53.349Z,94752.38
2023-03-03T13:17:29.261Z,94746.63
2023-03-03T13:20:01.683Z,94746.81
2023-03-03T13:22:41.666Z,94753.34
2023-03-03T13:25:36.599Z,94753.19
2023-03-03T13:28:15.723Z,94752.84
2023-03-03T13:30:50.825Z,94749.53
2023-03-03T13:33:28.425Z,94744.78
2023-03-03T13:36:01.703Z,94740.41
2023-03-03T13:38:34.546Z,94744.22
2023-03-03T13:41:10.298Z,94739.28
2023-03-03T13:43:47.337Z,94748.06
2023-03-03T13:46:27.110Z,94739.28
2023-03-03T13:49:25.927Z,94745.06
2023-03-03T13:52:02.358Z,94738.13
2023-03-03T13:54:53.708Z,94738.75
2023-03-03T13:57:41.362Z,94732.63
2023-03-03T14:00:23.028Z,94734.28
2023-03-03T14:03:11.979Z,94733.75
2023-03-03T14:05:45.884Z,94734.81
2023-03-03T14:08:27.343Z,94738.03
2023-03-03T14:11:11.934Z,94741.09
2023-03-03T14:13:52.816Z,94733.28
2023-03-03T14:16:35.100Z,94742.06
2023-03-03T14:19:08.267Z,94728.91
2023-03-03T14:21:42.293Z,94726.16
2023-03-03T14:24:18.391Z,94727.94
2023-03-03T14:26:51.622Z,94731.22
2023-03-03T14:29:34.128Z,94733.63
2023-03-03T14:32:07.834Z,94731.88
2023-03-03T14:34:40.006Z,94730.63
2023-03-03T14:37:27.958Z,94729.72
2023-03-03T14:40:17.842Z,94728.97
2023-03-03T14:42:57.377Z,94722.94
2023-03-03T14:45:36.418Z,94725.59
2023-03-03T14:48:17.451Z,94729.38
2023-03-03T14:50:52.158Z,94726.03
2023-03-03T14:53:34.581Z,94719.81
2023-03-03T14:56:22.739Z,94716.16
2023-03-03T14:58:54.692Z,94717.56
2023-03-03T15:01:32.456Z,94724.44
2023-03-03T15:04:03.666Z,94719.44
2023-03-03T15:06:37.258Z,94724.16
2023-03-03T15:09:36.814Z,94726.78
2023-03-03T15:12:20.721Z,94717.72
2023-03-03T15:14:54.052Z,94717.13
2023-03-03T15:17:27.694Z,94717.88
2023-03-03T15:20:01.709Z,94708.19
2023-03-03T15:22:49.942Z,94718.44
2023-03-03T15:25:41.977Z,94707.91
2023-03-03T15:28:26.451Z,94701.91
2023-03-03T15:31:04.743Z,94697.66
2023-03-03T15:33:40.412Z,94706.53
2023-03-03T15:36:16.623Z,94705.72
2023-03-03T15:39:02.727Z,94709.28
2023-03-03T15:41:46.229Z,94716.25
2023-03-03T15:44:18.247Z,94712.34
2023-03-03T15:47:09.711Z,94721.53
2023-03-03T15:50:17.652Z,94722.09
2023-03-03T15:52:58.232Z,94721.97
2023-03-03T15:55:47.065Z,94721.97
2023-03-03T15:58:48.159Z,94727.81
2023-03-03T16:01:27.271Z,94727.81
2023-03-03T16:04:02.329Z,94732.88
2023-03-03T16:06:42.604Z,94727.44
2023-03-03T16:09:24.785Z,94731.31
2023-03-03T16:12:02.352Z,94730.88
2023-03-03T16:14:52.971Z,94733.72
2023-03-03T16:17:35.069Z,94735.44
2023-03-03T16:20:17.447Z,94736.88
2023-03-03T16:23:25.070Z,94743.34
2023-03-03T16:26:02.338Z,94749.63
2023-03-03T16:28:43.292Z,94746.81
2023-03-03T16:31:18.887Z,94749.63
2023-03-03T16:33:57.498Z,94753.50
2023-03-03T16:36:37.836Z,94752.91
2023-03-03T16:39:14.684Z,94761.59
2023-03-03T16:41:52.784Z,94756.56
2023-03-03T16:44:38.835Z,94753.13
2023-03-03T16:47:20.701Z,94756.63
2023-03-03T16:49:58.590Z,94758.97
2023-03-03T16:52:39.669Z,94763.22
2023-03-03T16:55:17.107Z,94769.72
2023-03-03T16:57:58.873Z,94763.00
2023-03-03T17:00:31.647Z,94776.19
2023-03-03T17:03:29.250Z,94780.63
2023-03-03T17:06:05.470Z,94776.19
2023-03-03T17:09:20.434Z,94781.66
2023-03-03T17:12:21.147Z,94780.84
2023-03-03T17:15:03.534Z,94779.66
2023-03-03T17:17:41.044Z,94787.13
2023-03-03T17:20:21.076Z,94786.50
2023-03-03T17:23:04.417Z,94785.69
2023-03-03T17:25:45.838Z,94795.84
2023-03-03T17:28:26.279Z,94785.94
2023-03-03T17:31:03.059Z,94789.03
2023-03-03T17:33:50.402Z,94794.31
2023-03-03T17:36:32.987Z,94796.94
2023-03-03T17:39:12.971Z,94799.78
2023-03-03T17:41:50.332Z,94810.13
2023-03-03T17:44:26.288Z,94813.09
2023-03-03T17:46:58.424Z,94810.13
2023-03-03T17:49:49.174Z,94815.16
2023-03-03T17:52:53.530Z,94817.81
2023-03-03T17:56:12.667Z,94830.50
2023-03-03T17:59:14.921Z,94821.06
2023-03-03T18:02:09.897Z,94822.75
2023-03-03T18:04:57.084Z,94826.97
2023-03-03T18:08:00.048Z,94833.81
2023-03-03T18:10:54.420Z,94832.00
2023-03-03T18:13:52.000Z,94834.63
2023-03-03T18:16:35.973Z,94841.94
2023-03-03T18:19:23.802Z,94850.53
2023-03-03T18:21:59.920Z,94846.00
2023-03-03T18:24:34.835Z,94855.19
2023-03-03T18:27:30.162Z,94860.88
2023-03-03T18:30:28.457Z,94852.66
2023-03-03T18:33:13.354Z,94864.59
2023-03-03T18:35:45.795Z,94863.19
2023-03-03T18:38:33.134Z,94868.69
2023-03-03T18:41:04.696Z,94867.88
2023-03-03T18:43:54.975Z,94868.47
2023-03-03T18:46:49.962Z,94872.19
2023-03-03T18:49:20.645Z,94871.44
2023-03-03T18:51:54.067Z,94882.44
2023-03-03T18:54:33.579Z,94889.94
2023-03-03T18:57:20.507Z,94884.69
2023-03-03T18:59:58.947Z,94890.38
2023-03-03T19:02:39.195Z,94888.00
2023-03-03T19:05:24.714Z,94887.84
2023-03-03T19:08:04.819Z,94900.09
2023-03-03T19:10:53.152Z,94895.53
2023-03-03T19:13:53.697Z,94890.63
2023-03-03T19:16:38.771Z,94902.41
2023-03-03T19:19:14.584Z,94903.00
2023-03-03T19:21:50.130Z,94897.97
2023-03-03T19:24:35.336Z,94903.09
2023-03-03T19:27:16.973Z,94908.34
2023-03-03T19:30:24.337Z,94906.47
2023-03-03T19:33:13.752Z,94907.28
2023-03-03T19:35:56.298Z,94908.63
2023-03-03T19:38:34.992Z,94912.34
2023-03-03T19:41:21.050Z,94910.53
2023-03-03T19:44:00.933Z,94905.28
2023-03-03T19:46:45.219Z,94903.63
2023-03-03T19:49:23.138Z,94905.41
2023-03-03T19:51:58.581Z,94898.38
2023-03-03T19:54:46.145Z,94892.25
2023-03-03T19:57:36.031Z,94894.84
2023-03-03T20:00:17.037Z,94898.22
2023-03-03T20:02:56.298Z,94895.78
2023-03-03T20:05:34.656Z,94892.47
2023-03-03T20:08:12.769Z,94897.75
2023-03-03T20:10:50.249Z,94899.84
2023-03-03T20:13:39.284Z,94897.31
2023-03-03T20:16:22.905Z,94898.75
2023-03-03T20:19:07.134Z,94896.53
2023-03-03T20:21:40.403Z,94902.19
2023-03-03T20:24:26.419Z,94900.22
2023-03-03T20:27:01.574Z,94888.00
2023-03-03T20:29:58.552Z,94886.47
2023-03-03T20:32:39.857Z,94887.69
2023-03-03T20:35:23.567Z,94895.59
2023-03-03T20:38:05.366Z,94897.06
2023-03-03T20:40:39.413Z,94891.00
2023-03-03T20:43:25.415Z,94888.78
2023-03-03T20:46:08.074Z,94882.31
2023-03-03T20:48:51.844Z,94882.72
2023-03-03T20:51:29.880Z,94879.56
2023-03-03T20:54:07.031Z,94878.00
2023-03-03T20:56:44.080Z,94884.00
2023-03-03T20:59:22.152Z,94883.41
2023-03-03T21:02:01.879Z,94872.69
2023-03-03T21:04:34.073Z,94869.94
2023-03-03T21:07:05.283Z,94882.25
2023-03-03T21:09:36.240Z,94875.03
2023-03-03T21:12:12.880Z,94871.47
2023-03-03T21:14:42.143Z,94874.91
2023-03-03T21:17:27.002Z,94872.66
2023-03-03T21:19:56.055Z,94867.03
2023-03-03T21:22:25.824Z,94873.94
2023-03-03T21:24:57.742Z,94874.25
2023-03-03T21:27:30.276Z,94887.41
2023-03-03T21:30:14.045Z,94888.44
2023-03-03T21:32:46.638Z,94886.97
2023-03-03T21:35:18.099Z,94889.75
2023-03-03T21:37:53.907Z,94889.53
2023-03-03T21:40:25.558Z,94896.00
2023-03-03T21:42:56.139Z,94901.06
2023-03-03T21:45:26.327Z,94899.66
2023-03-03T21:48:00.213Z,94906.53
2023-03-03T21:50:33.005Z,94911.00
2023-03-03T21:53:02.067Z,94908.56
2023-03-03T21:55:31.281Z,94902.63
2023-03-03T21:58:00.241Z,94901.59
2023-03-03T22:00:30.433Z,94906.41
2023-03-03T22:03:01.350Z,94909.53
2023-03-03T22:05:30.826Z,94910.94
2023-03-03T22:07:59.911Z,94896.16
2023-03-03T22:10:29.162Z,94903.63
2023-03-03T22:12:58.586Z,94898.44
2023-03-03T22:15:28.081Z,94903.28
2023-03-03T22:17:57.099Z,94908.34
2023-03-03T22:20:27.660Z,94906.59
2023-03-03T22:22:56.617Z,94906.03
2023-03-03T22:25:25.523Z,94892.44
2023-03-03T22:27:55.200Z,94901.50
2023-03-03T22:30:24.285Z,94897.63
2023-03-03T22:32:54.891Z,94903.41
2023-03-03T22:35:24.330Z,94904.63
2023-03-03T22:37:54.738Z,94901.59
2023-03-03T22:40:23.939Z,94901.75
2023-03-03T22:42:53.097Z,94902.16
2023-03-03T22:45:22.213Z,94902.75
2023-03-03T22:47:51.356Z,94911.25
2023-03-03T22:50:20.848Z,94914.69
2023-03-03T22:52:49.898Z,94916.31
2023-03-03T22:55:20.385Z,94914.06
2023-03-03T22:57:49.998Z,94919.53
2023-03-03T23:00:21.660Z,94912.47
2023-03-03T23:02:51.450Z,94911.84
2023-03-03T23:05:20.719Z,94908.63
2023-03-03T23:07:50.958Z,94909.09
2023-03-03T23:10:21.829Z,94909.34
2023-03-03T23:12:50.996Z,94907.88
2023-03-03T23:15:21.304Z,94902.97
2023-03-03T23:17:52.713Z,94907.22
2023-03-03T23:20:24.341Z,94911.84
2023-03-03T23:22:53.949Z,94903.75
2023-03-03T23:25:26.614Z,94916.06
2023-03-03T23:27:55.715Z,94918.09
2023-03-03T23:30:25.291Z,94919.34
2023-03-03T23:32:54.864Z,94912.81
2023-03-03T23:35:23.916Z,94920.50
2023-03-03T23:37:53.192Z,94911.59
2023-03-03T23:40:22.228Z,94921.13
2023-03-03T23:42:53.256Z,94917.53
2023-03-03T23:45:22.595Z,94923.56
2023-03-03T23:47:51.901Z,94917.31
2023-03-03T23:50:21.412Z,94927.03
2023-03-03T23:52:51.880Z,94932.31
2023-03-03T23:55:21.214Z,94930.66
2023-03-03T23:57:51.808Z,94926.38
